sensor_id;sensor_type;location;lat;lon;timestamp;temperature;humidity
21648;DHT22;10985;54.182;7.890;2023-02-25T10:39:27;5.30;99.90
21648;DHT22;10985;54.182;7.890;2023-02-25T10:41:53;5.40;99.90
21648;DHT22;10985;54.182;7.890;2023-02-25T10:44:19;5.70;99.90
21648;DHT22;10985;54.182;7.890;2023-02-25T10:46:57;5.90;99.90
21648;DHT22;10985;54.182;7.890;2023-02-25T10:49:26;6.20;99.90
21648;DHT22;10985;54.182;7.890;2023-02-25T10:52:09;6.50;99.90
21648;DHT22;10985;54.182;7.890;2023-02-25T10:54:51;6.80;99.90
21648;DHT22;10985;54.182;7.890;2023-02-25T10:57:22;7.20;99.90
21648;DHT22;10985;54.182;7.890;2023-02-25T10:59:59;7.50;99.90
21648;DHT22;10985;54.182;7.890;2023-02-25T11:02:30;8.00;99.90
21648;DHT22;10985;54.182;7.890;2023-02-25T11:04:56;8.30;99.90
21648;DHT22;10985;54.182;7.890;2023-02-25T11:07:34;8.60;99.90
21648;DHT22;10985;54.182;7.890;2023-02-25T11:10:17;9.00;99.90
21648;DHT22;10985;54.182;7.890;2023-02-25T11:12:46;9.40;99.90
21648;DHT22;10985;54.182;7.890;2023-02-25T11:17:54;10.10;99.90
21648;DHT22;10985;54.182;7.890;2023-02-25T11:20:25;10.50;99.90
21648;DHT22;10985;54.182;7.890;2023-02-25T11:22:53;10.70;99.90
21648;DHT22;10985;54.182;7.890;2023-02-25T11:25:20;11.00;99.90
21648;DHT22;10985;54.182;7.890;2023-02-25T11:27:54;11.30;99.90
21648;DHT22;10985;54.182;7.890;2023-02-25T11:30:35;11.60;99.90
21648;DHT22;10985;54.182;7.890;2023-02-25T11:33:05;11.90;99.90
21648;DHT22;10985;54.182;7.890;2023-02-25T11:35:35;12.10;99.90
21648;DHT22;10985;54.182;7.890;2023-02-25T11:38:15;12.40;99.90
21648;DHT22;10985;54.182;7.890;2023-02-25T11:40:48;12.50;99.90
21648;DHT22;10985;54.182;7.890;2023-02-25T11:43:18;12.70;99.90
21648;DHT22;10985;54.182;7.890;2023-02-25T11:45:59;12.80;99.90
21648;DHT22;10985;54.182;7.890;2023-02-25T11:57:17;13.70;99.90
21648;DHT22;10985;54.182;7.890;2023-02-25T11:59:53;14.00;99.60
21648;DHT22;10985;54.182;7.890;2023-02-25T12:02:31;14.10;97.10
21648;DHT22;10985;54.182;7.890;2023-02-25T12:05:20;14.20;98.20
21648;DHT22;10985;54.182;7.890;2023-02-25T12:19:24;15.10;96.40
21648;DHT22;10985;54.182;7.890;2023-02-25T12:22:24;15.30;95.70
21648;DHT22;10985;54.182;7.890;2023-02-25T12:36:49;16.30;90.40
21648;DHT22;10985;54.182;7.890;2023-02-25T12:44:29;16.30;92.10
21648;DHT22;10985;54.182;7.890;2023-02-25T12:47:32;16.60;90.70
21648;DHT22;10985;54.182;7.890;2023-02-25T12:50:15;16.60;91.10
21648;DHT22;10985;54.182;7.890;2023-02-25T13:04:44;16.40;90.50
21648;DHT22;10985;54.182;7.890;2023-02-25T13:07:40;16.10;90.70
21648;DHT22;10985;54.182;7.890;2023-02-25T13:10:19;15.70;91.30
21648;DHT22;10985;54.182;7.890;2023-02-25T13:15:59;15.90;91.40
21648;DHT22;10985;54.182;7.890;2023-02-25T13:21:31;15.80;91.70
21648;DHT22;10985;54.182;7.890;2023-02-25T13:24:18;15.80;93.10
21648;DHT22;10985;54.182;7.890;2023-02-25T13:29:25;15.90;93.80
21648;DHT22;10985;54.182;7.890;2023-02-25T13:34:30;15.80;90.30
21648;DHT22;10985;54.182;7.890;2023-02-25T13:37:20;15.80;91.00
21648;DHT22;10985;54.182;7.890;2023-02-25T13:40:04;15.80;86.30
21648;DHT22;10985;54.182;7.890;2023-02-25T13:42:51;15.90;87.60
21648;DHT22;10985;54.182;7.890;2023-02-25T13:45:37;15.90;88.40
21648;DHT22;10985;54.182;7.890;2023-02-25T13:48:35;16.00;90.30
21648;DHT22;10985;54.182;7.890;2023-02-25T13:51:22;16.10;90.30
21648;DHT22;10985;54.182;7.890;2023-02-25T14:00:02;16.00;90.40
21648;DHT22;10985;54.182;7.890;2023-02-25T14:08:02;15.30;87.30
21648;DHT22;10985;54.182;7.890;2023-02-25T14:10:53;14.90;90.70
21648;DHT22;10985;54.182;7.890;2023-02-25T14:13:43;14.60;94.10
21648;DHT22;10985;54.182;7.890;2023-02-25T14:16:27;14.20;96.80
21648;DHT22;10985;54.182;7.890;2023-02-25T14:21:45;12.90;99.30
21648;DHT22;10985;54.182;7.890;2023-02-25T14:24:33;12.30;97.90
21648;DHT22;10985;54.182;7.890;2023-02-25T14:27:35;11.90;99.10
21648;DHT22;10985;54.182;7.890;2023-02-25T14:30:41;11.40;99.90
21648;DHT22;10985;54.182;7.890;2023-02-25T14:36:01;10.10;99.90
21648;DHT22;10985;54.182;7.890;2023-02-25T14:38:52;9.80;99.90
21648;DHT22;10985;54.182;7.890;2023-02-25T14:44:13;9.10;99.90
21648;DHT22;10985;54.182;7.890;2023-02-25T14:46:47;8.80;99.90
21648;DHT22;10985;54.182;7.890;2023-02-25T14:58:18;8.30;99.90
21648;DHT22;10985;54.182;7.890;2023-02-25T15:06:52;7.70;99.90
21648;DHT22;10985;54.182;7.890;2023-02-25T15:12:33;7.30;99.90
21648;DHT22;10985;54.182;7.890;2023-02-25T15:15:27;7.30;99.90
21648;DHT22;10985;54.182;7.890;2023-02-25T15:23:55;6.90;99.90
21648;DHT22;10985;54.182;7.890;2023-02-25T15:26:41;6.90;99.90
21648;DHT22;10985;54.182;7.890;2023-02-25T15:34:36;6.70;99.90
21648;DHT22;10985;54.182;7.890;2023-02-25T15:37:21;6.70;99.90
21648;DHT22;10985;54.182;7.890;2023-02-25T15:39:51;6.60;99.90
21648;DHT22;10985;54.182;7.890;2023-02-25T15:42:44;6.50;99.90
21648;DHT22;10985;54.182;7.890;2023-02-25T15:50:58;6.40;99.90
21648;DHT22;10985;54.182;7.890;2023-02-25T15:55:52;6.30;99.90
21648;DHT22;10985;54.182;7.890;2023-02-25T16:00:54;6.10;99.90
21648;DHT22;10985;54.182;7.890;2023-02-25T16:03:38;6.10;99.90
21648;DHT22;10985;54.182;7.890;2023-02-25T16:06:14;6.00;99.90
21648;DHT22;10985;54.182;7.890;2023-02-25T16:08:51;6.00;99.90
21648;DHT22;10985;54.182;7.890;2023-02-25T16:11:42;5.90;99.90
21648;DHT22;10985;54.182;7.890;2023-02-25T16:14:28;5.90;99.90
21648;DHT22;10985;54.182;7.890;2023-02-25T16:16:57;5.80;99.90
21648;DHT22;10985;54.182;7.890;2023-02-25T16:19:25;5.80;99.90
21648;DHT22;10985;54.182;7.890;2023-02-25T16:24:35;5.60;99.90
21648;DHT22;10985;54.182;7.890;2023-02-25T16:27:30;5.50;99.90
21648;DHT22;10985;54.182;7.890;2023-02-25T16:32:36;5.40;99.90
21648;DHT22;10985;54.182;7.890;2023-02-25T16:38:05;5.20;99.90
21648;DHT22;10985;54.182;7.890;2023-02-25T16:40:36;5.20;99.90
21648;DHT22;10985;54.182;7.890;2023-02-25T16:43:03;5.10;99.90
21648;DHT22;10985;54.182;7.890;2023-02-25T16:45:34;5.10;99.90
21648;DHT22;10985;54.182;7.890;2023-02-25T16:48:12;5.00;99.90
21648;DHT22;10985;54.182;7.890;2023-02-25T16:50:38;5.00;99.90
21648;DHT22;10985;54.182;7.890;2023-02-25T16:53:04;5.00;99.90
21648;DHT22;10985;54.182;7.890;2023-02-25T16:55:38;4.90;99.90
21648;DHT22;10985;54.182;7.890;2023-02-25T17:00:49;4.90;99.90
21648;DHT22;10985;54.182;7.890;2023-02-25T17:03:17;4.90;99.90
21648;DHT22;10985;54.182;7.890;2023-02-25T17:05:43;4.90;99.90
21648;DHT22;10985;54.182;7.890;2023-02-25T17:08:16;4.90;99.90
21648;DHT22;10985;54.182;7.890;2023-02-25T17:10:48;4.90;99.90
21648;DHT22;10985;54.182;7.890;2023-02-25T17:15:52;4.80;99.90
21648;DHT22;10985;54.182;7.890;2023-02-25T17:18:25;4.80;99.90
21648;DHT22;10985;54.182;7.890;2023-02-25T17:21:07;4.80;99.90
21648;DHT22;10985;54.182;7.890;2023-02-25T17:23:39;4.80;99.90
21648;DHT22;10985;54.182;7.890;2023-02-25T17:26:05;4.80;99.90
21648;DHT22;10985;54.182;7.890;2023-02-25T17:28:31;4.80;99.90
21648;DHT22;10985;54.182;7.890;2023-02-25T17:31:06;4.80;99.90
21648;DHT22;10985;54.182;7.890;2023-02-25T17:33:33;4.80;99.90
21648;DHT22;10985;54.182;7.890;2023-02-25T17:36:05;4.90;99.90
21648;DHT22;10985;54.182;7.890;2023-02-25T17:38:32;4.90;99.90
21648;DHT22;10985;54.182;7.890;2023-02-25T17:40:57;4.80;99.90
